createdAt,value
2019-05-07T00:03:52.349Z,80.80
2019-05-07T00:08:03.138Z,80.90
2019-05-07T00:12:13.529Z,81.10
2019-05-07T00:16:23.872Z,81.30
2019-05-07T00:20:34.165Z,81.40
2019-05-07T00:24:44.361Z,81.60
2019-05-07T00:28:54.703Z,81.90
2019-05-07T00:33:05.021Z,81.70
2019-05-07T00:37:17.087Z,81.60
2019-05-07T00:41:35.034Z,81.10
2019-05-07T00:45:46.977Z,80.60
2019-05-07T00:49:58.794Z,79.90
2019-05-07T00:54:09.308Z,79.70
2019-05-07T00:58:23.387Z,79.30
2019-05-07T01:02:32.452Z,78.90
2019-05-07T01:06:43.511Z,78.30
2019-05-07T01:10:54.037Z,78.80
2019-05-07T01:15:07.468Z,77.90
2019-05-07T01:19:17.691Z,78.00
2019-05-07T01:23:28.052Z,77.90
2019-05-07T01:27:38.381Z,77.70
2019-05-07T01:31:52.443Z,77.60
2019-05-07T01:36:04.108Z,77.60
2019-05-07T01:40:14.584Z,77.20
2019-05-07T01:44:25.437Z,77.00
2019-05-07T01:48:35.635Z,76.70
2019-05-07T01:52:45.861Z,76.70
2019-05-07T01:56:56.268Z,76.70
2019-05-07T02:01:06.771Z,76.60
2019-05-07T02:05:18.785Z,76.60
2019-05-07T02:09:36.778Z,76.70
2019-05-07T02:13:47.628Z,76.70
2019-05-07T02:17:58.020Z,76.70
2019-05-07T02:22:08.254Z,76.80
2019-05-07T02:26:18.689Z,76.90
2019-05-07T02:30:29.549Z,77.30
2019-05-07T02:34:39.769Z,77.50
2019-05-07T02:39:04.048Z,78.00
2019-05-07T02:43:14.328Z,78.20
2019-05-07T02:47:24.919Z,78.30
2019-05-07T02:51:43.164Z,78.50
2019-05-07T02:55:53.241Z,78.60
2019-05-07T03:00:07.805Z,78.70
2019-05-07T03:04:18.175Z,79.00
2019-05-07T03:08:28.471Z,79.40
2019-05-07T03:12:38.914Z,79.40
2019-05-07T03:16:49.754Z,79.60
2019-05-07T03:21:03.460Z,80.80
2019-05-07T03:25:18.607Z,80.20
2019-05-07T03:29:28.826Z,80.30
2019-05-07T03:33:47.698Z,80.50
2019-05-07T03:37:58.775Z,80.70
2019-05-07T03:42:08.989Z,80.80
2019-05-07T03:46:23.219Z,81.60
2019-05-07T03:50:33.827Z,80.80
2019-05-07T03:54:44.137Z,80.60
2019-05-07T03:58:54.464Z,80.70
2019-05-07T04:03:04.729Z,81.30
2019-05-07T04:07:15.208Z,81.90
2019-05-07T04:11:25.514Z,82.00
2019-05-07T04:15:35.829Z,82.20
2019-05-07T04:19:46.170Z,82.30
2019-05-07T04:24:14.156Z,82.50
2019-05-07T04:28:29.048Z,82.60
2019-05-07T04:32:43.358Z,82.80
2019-05-07T04:36:53.614Z,83.00
2019-05-07T04:41:06.604Z,83.50
2019-05-07T04:45:18.554Z,83.40
2019-05-07T04:49:28.858Z,83.30
2019-05-07T04:53:39.312Z,83.20
2019-05-07T04:57:49.622Z,83.20
2019-05-07T05:02:04.173Z,83.00
2019-05-07T05:06:13.915Z,83.10
2019-05-07T05:10:25.106Z,83.20
2019-05-07T05:14:35.531Z,83.30
2019-05-07T05:18:45.863Z,83.70
2019-05-07T05:23:16.617Z,82.70
2019-05-07T05:27:29.952Z,82.40
2019-05-07T05:31:38.900Z,82.10
2019-05-07T05:35:49.412Z,81.90
2019-05-07T05:40:06.259Z,81.90
2019-05-07T05:44:16.665Z,81.50
2019-05-07T05:48:26.859Z,80.90
2019-05-07T05:52:38.863Z,80.20
2019-05-07T05:56:53.452Z,80.10
2019-05-07T06:01:22.598Z,80.40
2019-05-07T06:05:42.033Z,80.90
2019-05-07T06:10:02.732Z,81.40
2019-05-07T06:14:14.736Z,81.30
2019-05-07T06:18:35.646Z,81.70
2019-05-07T06:23:03.911Z,82.40
2019-05-07T06:27:14.205Z,83.30
2019-05-07T06:31:26.137Z,85.30
2019-05-07T06:35:36.440Z,88.70
2019-05-07T06:39:53.837Z,90.70
2019-05-07T06:44:12.709Z,91.70
2019-05-07T06:48:37.952Z,92.60
2019-05-07T06:52:37.353Z,93.10
2019-05-07T06:56:49.037Z,93.40
2019-05-07T07:01:07.894Z,93.50
2019-05-07T07:05:23.443Z,93.50
2019-05-07T07:09:35.216Z,93.50
2019-05-07T07:13:45.949Z,93.40
2019-05-07T07:17:57.879Z,93.30
2019-05-07T07:22:08.297Z,93.20
2019-05-07T07:26:18.637Z,93.20
2019-05-07T07:30:42.846Z,93.20
2019-05-07T07:34:54.260Z,92.90
2019-05-07T07:39:07.467Z,92.30
2019-05-07T07:43:17.773Z,91.90
2019-05-07T07:47:28.108Z,91.50
2019-05-07T07:51:42.179Z,91.60
2019-05-07T07:56:08.032Z,91.70
2019-05-07T08:00:30.250Z,91.50
2019-05-07T08:04:42.590Z,91.00
2019-05-07T08:08:53.057Z,91.40
2019-05-07T08:13:03.443Z,90.20
2019-05-07T08:17:13.880Z,84.70
2019-05-07T08:21:24.453Z,82.80
2019-05-07T08:25:49.428Z,81.30
2019-05-07T08:29:59.793Z,82.60
2019-05-07T08:34:27.702Z,81.30
2019-05-07T08:38:53.288Z,80.90
2019-05-07T08:43:03.612Z,83.50
2019-05-07T08:47:18.150Z,83.00
2019-05-07T08:51:28.443Z,81.10
2019-05-07T08:55:38.754Z,80.60
2019-05-07T08:59:58.333Z,76.10
2019-05-07T09:04:02.464Z,67.40
2019-05-07T09:08:12.967Z,64.50
2019-05-07T09:12:23.372Z,60.80
2019-05-07T09:16:33.675Z,58.70
2019-05-07T09:20:44.175Z,62.50
2019-05-07T09:24:54.661Z,66.10
2019-05-07T09:29:06.905Z,68.70
2019-05-07T09:33:18.902Z,67.80
2019-05-07T09:37:32.611Z,63.10
2019-05-07T09:41:43.023Z,60.00
2019-05-07T09:45:53.330Z,62.20
2019-05-07T09:50:08.122Z,63.20
2019-05-07T09:54:17.481Z,63.40
2019-05-07T09:58:36.713Z,62.60
2019-05-07T10:02:42.314Z,63.20
2019-05-07T10:06:52.031Z,62.90
2019-05-07T10:11:04.293Z,62.20
2019-05-07T10:15:15.665Z,60.40
2019-05-07T10:19:26.182Z,57.40
2019-05-07T10:23:36.777Z,57.40
2019-05-07T10:27:47.204Z,57.60
2019-05-07T10:31:59.434Z,57.70
2019-05-07T10:36:10.144Z,59.00
2019-05-07T10:40:22.380Z,59.10
2019-05-07T10:44:34.685Z,57.40
2019-05-07T10:48:46.672Z,57.40
2019-05-07T10:52:57.393Z,56.60
2019-05-07T10:57:08.037Z,56.70
2019-05-07T11:01:22.296Z,56.10
2019-05-07T11:05:44.947Z,57.40
2019-05-07T11:09:55.278Z,55.60
2019-05-07T11:14:05.912Z,54.10
2019-05-07T11:18:32.158Z,51.70
2019-05-07T11:22:42.879Z,51.00
2019-05-07T11:26:53.285Z,50.30
2019-05-07T11:31:03.656Z,51.60
2019-05-07T11:35:14.830Z,53.00
2019-05-07T11:39:25.848Z,54.10
2019-05-07T11:43:46.472Z,52.10
2019-05-07T11:47:56.777Z,51.10
2019-05-07T11:52:08.874Z,49.90
2019-05-07T11:56:19.199Z,50.00
2019-05-07T12:00:34.386Z,49.40
2019-05-07T12:04:44.709Z,49.90
2019-05-07T12:08:55.180Z,50.30
2019-05-07T12:13:05.632Z,50.90
2019-05-07T12:17:16.125Z,50.60
2019-05-07T12:21:28.311Z,51.00
2019-05-07T12:25:39.352Z,52.30
2019-05-07T12:29:49.691Z,53.30
2019-05-07T12:34:07.719Z,52.80
2019-05-07T12:38:18.203Z,52.40
2019-05-07T12:42:28.806Z,52.10
2019-05-07T12:46:39.480Z,52.80
2019-05-07T12:50:52.139Z,52.90
2019-05-07T12:55:03.804Z,52.60
2019-05-07T12:59:14.249Z,52.10
2019-05-07T13:03:33.629Z,52.00
2019-05-07T13:07:45.567Z,52.10
2019-05-07T13:11:56.221Z,52.20
2019-05-07T13:16:06.516Z,53.30
2019-05-07T13:20:16.858Z,53.40
2019-05-07T13:24:27.151Z,53.40
2019-05-07T13:28:37.932Z,53.60
2019-05-07T13:32:48.373Z,53.70
2019-05-07T13:37:02.558Z,53.30
2019-05-07T13:41:29.033Z,52.50
2019-05-07T13:45:59.171Z,51.90
2019-05-07T13:50:11.759Z,51.90
2019-05-07T13:54:22.322Z,51.20
2019-05-07T13:58:33.036Z,51.00
2019-05-07T14:02:43.378Z,51.20
2019-05-07T14:06:53.678Z,51.70
2019-05-07T14:11:04.123Z,51.40
2019-05-07T14:15:15.025Z,51.60
2019-05-07T14:19:25.386Z,51.00
2019-05-07T14:23:36.546Z,49.90
2019-05-07T14:27:48.087Z,49.20
2019-05-07T14:32:02.155Z,48.90
2019-05-07T14:36:23.032Z,49.90
2019-05-07T14:40:33.413Z,49.20
2019-05-07T14:44:50.204Z,49.10
2019-05-07T14:49:02.635Z,49.50
2019-05-07T14:53:13.266Z,48.60
2019-05-07T14:57:23.687Z,49.30
2019-05-07T15:01:34.141Z,50.00
2019-05-07T15:05:44.409Z,50.10
2019-05-07T15:09:55.165Z,50.30
2019-05-07T15:14:05.993Z,49.90
2019-05-07T15:18:19.062Z,49.60
2019-05-07T15:22:45.839Z,49.60
2019-05-07T15:26:43.237Z,49.50
2019-05-07T15:30:55.174Z,50.30
2019-05-07T15:35:06.957Z,52.30
2019-05-07T15:39:17.267Z,52.80
2019-05-07T15:43:27.700Z,52.90
2019-05-07T15:47:39.710Z,53.90
2019-05-07T15:51:53.116Z,54.10
2019-05-07T15:56:03.666Z,54.80
2019-05-07T16:00:19.020Z,55.60
2019-05-07T16:04:29.457Z,56.70
2019-05-07T16:08:44.406Z,56.80
2019-05-07T16:12:55.248Z,57.30
2019-05-07T16:17:07.321Z,57.00
2019-05-07T16:21:17.733Z,57.10
2019-05-07T16:25:28.136Z,57.00
2019-05-07T16:29:38.500Z,56.50
2019-05-07T16:33:48.756Z,56.10
2019-05-07T16:37:59.829Z,56.50
2019-05-07T16:42:10.123Z,56.10
2019-05-07T16:46:22.327Z,56.10
2019-05-07T16:50:32.743Z,56.20
2019-05-07T16:54:45.262Z,56.30
2019-05-07T16:58:56.760Z,56.10
2019-05-07T17:03:08.845Z,57.60
2019-05-07T17:07:22.073Z,56.80
2019-05-07T17:11:33.325Z,56.60
2019-05-07T17:15:58.169Z,56.70
2019-05-07T17:20:12.586Z,56.90
2019-05-07T17:24:23.960Z,57.00
2019-05-07T17:28:34.301Z,57.20
2019-05-07T17:32:44.650Z,57.20
2019-05-07T17:36:55.256Z,57.00
2019-05-07T17:41:13.091Z,57.10
2019-05-07T17:45:18.647Z,57.30
2019-05-07T17:49:28.974Z,57.40
2019-05-07T17:53:39.333Z,57.70
2019-05-07T17:57:49.736Z,58.00
2019-05-07T18:02:13.676Z,58.20
2019-05-07T18:06:25.536Z,58.10
2019-05-07T18:10:35.851Z,58.10
2019-05-07T18:14:46.164Z,58.10
2019-05-07T18:18:58.730Z,58.10
2019-05-07T18:23:13.315Z,58.10
2019-05-07T18:27:22.960Z,58.30
2019-05-07T18:31:43.553Z,58.50
2019-05-07T18:35:55.785Z,58.90
2019-05-07T18:40:07.367Z,59.40
2019-05-07T18:44:22.140Z,60.00
2019-05-07T18:48:32.157Z,60.50
2019-05-07T18:52:42.504Z,61.20
2019-05-07T18:56:53.004Z,61.50
2019-05-07T19:01:09.937Z,61.70
2019-05-07T19:05:22.274Z,61.80
2019-05-07T19:09:32.664Z,62.20
2019-05-07T19:13:43.076Z,62.50
2019-05-07T19:17:53.641Z,62.40
2019-05-07T19:22:04.000Z,62.80
2019-05-07T19:26:14.865Z,63.10
2019-05-07T19:30:25.339Z,63.40
2019-05-07T19:34:35.677Z,63.80
2019-05-07T19:38:48.436Z,64.30
2019-05-07T19:42:58.805Z,64.80
2019-05-07T19:47:09.154Z,65.30
2019-05-07T19:51:19.460Z,66.00
2019-05-07T19:55:32.826Z,66.40
2019-05-07T19:59:43.262Z,66.60
2019-05-07T20:03:53.557Z,67.00
2019-05-07T20:08:04.704Z,67.20
2019-05-07T20:12:16.838Z,68.00
2019-05-07T20:16:27.178Z,68.50
2019-05-07T20:20:37.581Z,68.90
2019-05-07T20:24:47.920Z,69.50
2019-05-07T20:28:58.351Z,70.00
2019-05-07T20:33:08.743Z,70.30
2019-05-07T20:37:19.077Z,70.30
2019-05-07T20:41:29.280Z,70.50
2019-05-07T20:45:39.674Z,70.90
2019-05-07T20:49:50.119Z,71.20
2019-05-07T20:54:08.510Z,71.70
2019-05-07T20:58:19.468Z,72.10
2019-05-07T21:02:44.023Z,72.20
2019-05-07T21:06:43.189Z,72.50
2019-05-07T21:10:53.949Z,72.80
2019-05-07T21:15:06.165Z,74.50
2019-05-07T21:19:16.766Z,75.60
2019-05-07T21:23:27.127Z,75.50
2019-05-07T21:27:37.469Z,76.00
2019-05-07T21:31:47.802Z,76.40
2019-05-07T21:35:58.173Z,76.90
2019-05-07T21:40:08.969Z,77.50
2019-05-07T21:44:19.481Z,77.80
2019-05-07T21:48:30.070Z,78.10
2019-05-07T21:52:42.045Z,78.50
2019-05-07T21:57:12.663Z,79.00
2019-05-07T22:01:24.259Z,79.30
2019-05-07T22:05:34.660Z,79.40
2019-05-07T22:09:45.156Z,79.50
2019-05-07T22:13:55.453Z,79.30
2019-05-07T22:18:05.809Z,79.10
2019-05-07T22:22:16.445Z,79.20
2019-05-07T22:26:26.782Z,79.10
2019-05-07T22:30:52.651Z,80.00
2019-05-07T22:35:08.789Z,79.20
2019-05-07T22:39:19.123Z,79.10
2019-05-07T22:43:31.703Z,79.10
2019-05-07T22:47:43.122Z,79.10
2019-05-07T22:51:54.957Z,79.20
2019-05-07T22:56:05.458Z,79.00
2019-05-07T23:00:18.828Z,79.00
2019-05-07T23:04:29.073Z,79.00
2019-05-07T23:08:42.095Z,79.20
2019-05-07T23:12:52.007Z,79.20
2019-05-07T23:17:02.509Z,79.30
2019-05-07T23:21:13.742Z,79.70
2019-05-07T23:25:24.595Z,80.10
2019-05-07T23:29:35.017Z,80.50
2019-05-07T23:33:45.462Z,81.00
2019-05-07T23:37:55.760Z,81.50
2019-05-07T23:42:07.729Z,82.10
2019-05-07T23:46:18.151Z,82.70
2019-05-07T23:50:28.453Z,83.30
2019-05-07T23:54:38.836Z,83.10
2019-05-07T23:58:52.516Z,83.40
